createdAt,value
2018-08-19T00:01:49.768Z,17.50
2018-08-19T00:04:17.797Z,17.50
2018-08-19T00:06:45.850Z,17.40
2018-08-19T00:09:16.145Z,17.40
2018-08-19T00:11:45.450Z,17.40
2018-08-19T00:14:26.028Z,17.30
2018-08-19T00:16:54.925Z,17.20
2018-08-19T00:19:23.096Z,17.20
2018-08-19T00:21:51.177Z,17.10
2018-08-19T00:24:19.207Z,17.10
2018-08-19T00:26:47.373Z,17.00
2018-08-19T00:29:17.152Z,17.00
2018-08-19T00:31:45.188Z,17.00
2018-08-19T00:34:14.203Z,16.90
2018-08-19T00:36:42.295Z,16.90
2018-08-19T00:39:10.304Z,16.90
2018-08-19T00:41:38.363Z,16.80
2018-08-19T00:44:06.421Z,16.80
2018-08-19T00:46:34.475Z,16.80
2018-08-19T00:49:02.537Z,16.70
2018-08-19T00:51:30.575Z,16.70
2018-08-19T00:53:58.636Z,16.70
2018-08-19T00:56:26.688Z,16.60
2018-08-19T00:58:54.755Z,16.60
2018-08-19T01:01:34.294Z,16.60
2018-08-19T01:04:02.367Z,16.60
2018-08-19T01:06:33.414Z,16.50
2018-08-19T01:09:01.469Z,16.50
2018-08-19T01:11:33.244Z,16.50
2018-08-19T01:14:01.283Z,16.50
2018-08-19T01:16:29.357Z,16.50
2018-08-19T01:18:59.991Z,16.40
2018-08-19T01:21:29.262Z,16.30
2018-08-19T01:23:58.317Z,16.30
2018-08-19T01:26:26.377Z,16.30
2018-08-19T01:28:56.012Z,16.20
2018-08-19T01:31:25.336Z,16.20
2018-08-19T01:33:53.409Z,16.10
2018-08-19T01:36:21.461Z,16.10
2018-08-19T01:38:49.899Z,16.10
2018-08-19T01:41:17.954Z,16.10
2018-08-19T01:43:59.476Z,16.10
2018-08-19T01:46:28.020Z,16.10
2018-08-19T01:48:56.056Z,16.00
2018-08-19T01:51:24.121Z,16.00
2018-08-19T01:53:52.184Z,16.00
2018-08-19T01:56:20.241Z,15.90
2018-08-19T01:58:48.290Z,15.90
2018-08-19T02:01:16.597Z,15.90
2018-08-19T02:03:45.389Z,15.90
2018-08-19T02:06:13.476Z,15.80
2018-08-19T02:08:41.509Z,15.80
2018-08-19T02:11:24.557Z,15.80
2018-08-19T02:13:53.852Z,15.80
2018-08-19T02:16:21.916Z,15.70
2018-08-19T02:18:49.985Z,15.70
2018-08-19T02:21:18.036Z,15.70
2018-08-19T02:23:46.107Z,15.60
2018-08-19T02:26:18.605Z,15.60
2018-08-19T02:28:46.652Z,15.60
2018-08-19T02:31:14.720Z,15.60
2018-08-19T02:33:42.773Z,15.50
2018-08-19T02:36:11.034Z,15.50
2018-08-19T02:38:39.099Z,15.40
2018-08-19T02:41:07.206Z,15.40
2018-08-19T02:43:39.846Z,15.40
2018-08-19T02:46:07.905Z,15.40
2018-08-19T02:48:45.428Z,15.40
2018-08-19T02:51:14.539Z,15.30
2018-08-19T02:53:43.775Z,15.30
2018-08-19T02:56:12.453Z,15.20
2018-08-19T02:58:41.185Z,15.20
2018-08-19T03:01:09.545Z,15.10
2018-08-19T03:03:37.720Z,15.10
2018-08-19T03:06:07.125Z,15.10
2018-08-19T03:08:35.191Z,15.10
2018-08-19T03:11:03.254Z,15.10
2018-08-19T03:13:34.251Z,15.00
2018-08-19T03:16:02.321Z,15.00
2018-08-19T03:18:30.377Z,15.00
2018-08-19T03:20:58.429Z,15.00
2018-08-19T03:23:26.489Z,15.00
2018-08-19T03:25:54.544Z,14.90
2018-08-19T03:28:22.592Z,14.90
2018-08-19T03:30:55.964Z,14.90
2018-08-19T03:33:24.013Z,14.90
2018-08-19T03:35:52.064Z,14.90
2018-08-19T03:38:20.108Z,14.90
2018-08-19T03:40:48.170Z,14.90
2018-08-19T03:43:16.223Z,14.80
2018-08-19T03:45:44.294Z,14.90
2018-08-19T03:48:12.363Z,14.90
2018-08-19T03:50:40.408Z,14.80
2018-08-19T03:53:08.476Z,14.90
2018-08-19T03:55:37.645Z,14.80
2018-08-19T03:58:06.856Z,14.80
2018-08-19T04:00:37.296Z,14.70
2018-08-19T04:03:13.096Z,14.70
2018-08-19T04:05:44.934Z,14.70
2018-08-19T04:08:14.049Z,14.70
2018-08-19T04:10:43.244Z,14.70
2018-08-19T04:13:24.756Z,14.60
2018-08-19T04:15:53.656Z,14.70
2018-08-19T04:18:25.985Z,14.60
2018-08-19T04:20:54.128Z,14.60
2018-08-19T04:23:22.243Z,14.60
2018-08-19T04:25:50.588Z,14.60
2018-08-19T04:28:22.892Z,14.60
2018-08-19T04:30:51.004Z,14.50
2018-08-19T04:33:31.556Z,14.50
2018-08-19T04:35:59.656Z,14.50
2018-08-19T04:38:28.548Z,14.50
2018-08-19T04:40:57.516Z,14.40
2018-08-19T04:43:26.870Z,14.40
2018-08-19T04:45:54.925Z,14.40
2018-08-19T04:48:23.749Z,14.30
2018-08-19T04:50:52.440Z,14.30
2018-08-19T04:53:20.840Z,14.30
2018-08-19T04:55:48.906Z,14.30
2018-08-19T04:58:16.957Z,14.30
2018-08-19T05:00:45.009Z,14.30
2018-08-19T05:03:13.166Z,14.30
2018-08-19T05:05:41.669Z,14.40
2018-08-19T05:08:11.298Z,14.40
2018-08-19T05:10:39.475Z,14.40
2018-08-19T05:13:08.488Z,14.40
2018-08-19T05:15:37.109Z,14.40
2018-08-19T05:18:05.312Z,14.40
2018-08-19T05:20:33.377Z,14.40
2018-08-19T05:23:01.425Z,14.40
2018-08-19T05:25:29.646Z,14.50
2018-08-19T05:28:02.940Z,14.50
2018-08-19T05:30:32.660Z,14.60
2018-08-19T05:33:00.744Z,14.70
2018-08-19T05:35:29.546Z,14.70
2018-08-19T05:37:58.051Z,14.80
2018-08-19T05:40:26.097Z,14.90
2018-08-19T05:42:54.173Z,14.90
2018-08-19T05:45:22.394Z,15.00
2018-08-19T05:48:02.065Z,15.10
2018-08-19T05:50:30.112Z,15.20
2018-08-19T05:52:58.161Z,15.30
2018-08-19T05:55:26.253Z,15.40
2018-08-19T05:57:54.276Z,15.40
2018-08-19T06:00:22.785Z,15.60
2018-08-19T06:02:51.732Z,15.70
2018-08-19T06:05:19.787Z,15.80
2018-08-19T06:07:53.391Z,16.00
2018-08-19T06:10:21.435Z,16.10
2018-08-19T06:12:49.493Z,16.30
2018-08-19T06:15:17.562Z,16.40
2018-08-19T06:17:45.624Z,16.50
2018-08-19T06:20:13.709Z,16.70
2018-08-19T06:22:41.768Z,17.10
2018-08-19T06:25:10.882Z,17.30
2018-08-19T06:27:43.292Z,17.70
2018-08-19T06:30:21.005Z,18.20
2018-08-19T06:32:49.057Z,18.90
2018-08-19T06:35:17.132Z,20.10
2018-08-19T06:37:45.220Z,21.60
2018-08-19T06:40:15.277Z,23.20
2018-08-19T06:42:43.328Z,24.80
2018-08-19T06:45:12.160Z,26.20
2018-08-19T06:47:40.493Z,27.40
2018-08-19T06:50:17.865Z,28.50
2018-08-19T06:52:45.933Z,29.30
2018-08-19T06:55:14.415Z,30.00
2018-08-19T06:57:42.669Z,30.30
2018-08-19T07:00:31.428Z,30.50
2018-08-19T07:03:00.748Z,30.70
2018-08-19T07:05:29.244Z,31.10
2018-08-19T07:07:57.320Z,31.60
2018-08-19T07:10:31.875Z,32.60
2018-08-19T07:13:06.977Z,33.20
2018-08-19T07:15:36.204Z,34.20
2018-08-19T07:18:04.773Z,34.80
2018-08-19T07:20:32.980Z,35.60
2018-08-19T07:23:01.043Z,35.70
2018-08-19T07:25:29.100Z,36.20
2018-08-19T07:27:57.165Z,36.90
2018-08-19T07:30:25.216Z,37.50
2018-08-19T07:32:53.280Z,38.00
2018-08-19T07:35:21.353Z,38.20
2018-08-19T07:37:49.423Z,38.20
2018-08-19T07:40:17.537Z,38.90
2018-08-19T07:42:45.586Z,39.60
2018-08-19T07:45:13.651Z,40.00
2018-08-19T07:47:41.708Z,40.20
2018-08-19T07:50:10.189Z,40.40
2018-08-19T07:52:38.393Z,40.70
2018-08-19T07:55:06.869Z,41.10
2018-08-19T07:57:34.925Z,41.60
2018-08-19T08:00:02.999Z,42.30
2018-08-19T08:02:31.939Z,42.50
2018-08-19T08:05:00.012Z,43.10
2018-08-19T08:07:30.294Z,43.50
2018-08-19T08:09:58.404Z,44.00
2018-08-19T08:12:26.467Z,44.00
2018-08-19T08:14:55.142Z,43.90
2018-08-19T08:17:25.480Z,44.30
2018-08-19T08:20:08.226Z,44.30
2018-08-19T08:22:37.204Z,44.00
2018-08-19T08:25:06.972Z,44.10
2018-08-19T08:27:36.120Z,44.70
2018-08-19T08:30:08.370Z,45.20
2018-08-19T08:32:36.904Z,46.00
2018-08-19T08:35:06.076Z,46.40
2018-08-19T08:37:34.261Z,46.80
2018-08-19T08:40:08.296Z,47.20
2018-08-19T08:42:41.024Z,46.90
2018-08-19T08:45:10.249Z,47.40
2018-08-19T08:47:38.412Z,47.30
2018-08-19T08:50:06.860Z,47.40
2018-08-19T08:52:34.929Z,47.00
2018-08-19T08:55:04.589Z,46.70
2018-08-19T08:57:32.688Z,46.20
2018-08-19T09:00:00.757Z,46.10
2018-08-19T09:02:28.816Z,46.60
2018-08-19T09:04:56.924Z,46.60
2018-08-19T09:07:26.660Z,45.90
2018-08-19T09:09:54.705Z,45.20
2018-08-19T09:12:34.188Z,44.40
2018-08-19T09:15:02.245Z,43.90
2018-08-19T09:17:37.002Z,43.90
2018-08-19T09:20:06.821Z,44.80
2018-08-19T09:22:34.885Z,45.80
2018-08-19T09:25:02.920Z,46.80
2018-08-19T09:27:31.045Z,47.30
2018-08-19T09:29:59.102Z,47.40
2018-08-19T09:32:27.161Z,47.50
2018-08-19T09:34:55.204Z,47.20
2018-08-19T09:37:23.260Z,46.60
2018-08-19T09:39:51.321Z,46.20
2018-08-19T09:42:19.394Z,46.00
2018-08-19T09:44:47.434Z,46.40
2018-08-19T09:47:15.489Z,46.50
2018-08-19T09:49:43.532Z,46.40
2018-08-19T09:52:11.593Z,45.00
2018-08-19T09:54:39.656Z,44.10
2018-08-19T09:57:08.470Z,43.10
2018-08-19T09:59:36.533Z,43.10
2018-08-19T10:02:09.662Z,42.90
2018-08-19T10:04:37.713Z,42.90
2018-08-19T10:07:12.940Z,43.10
2018-08-19T10:09:41.481Z,43.50
2018-08-19T10:12:10.289Z,43.50
2018-08-19T10:14:38.370Z,43.40
2018-08-19T10:17:06.453Z,43.40
2018-08-19T10:19:34.513Z,43.60
2018-08-19T10:22:02.568Z,43.90
2018-08-19T10:24:31.928Z,44.10
2018-08-19T10:27:00.288Z,43.80
2018-08-19T10:29:28.509Z,43.60
2018-08-19T10:31:59.468Z,43.40
2018-08-19T10:34:28.890Z,43.40
2018-08-19T10:36:57.595Z,43.40
2018-08-19T10:39:25.680Z,43.20
2018-08-19T10:42:07.775Z,42.00
2018-08-19T10:44:35.804Z,41.40
2018-08-19T10:47:03.873Z,41.00
2018-08-19T10:49:32.029Z,40.80
2018-08-19T10:52:00.102Z,40.30
2018-08-19T10:54:28.169Z,39.70
2018-08-19T10:56:56.231Z,39.20
2018-08-19T10:59:24.281Z,38.70
2018-08-19T11:01:52.338Z,38.60
2018-08-19T11:04:20.390Z,37.80
2018-08-19T11:06:48.455Z,36.60
2018-08-19T11:09:16.845Z,36.40
2018-08-19T11:11:44.897Z,36.20
2018-08-19T11:14:12.962Z,36.20
2018-08-19T11:16:41.129Z,36.30
2018-08-19T11:19:09.181Z,36.10
2018-08-19T11:21:38.254Z,36.20
2018-08-19T11:24:16.453Z,35.30
2018-08-19T11:26:56.860Z,35.00
2018-08-19T11:29:35.775Z,34.70
2018-08-19T11:32:03.853Z,34.80
2018-08-19T11:34:31.899Z,34.70
2018-08-19T11:37:00.048Z,34.80
2018-08-19T11:39:33.452Z,34.50
2018-08-19T11:42:01.523Z,34.30
2018-08-19T11:44:29.576Z,34.20
2018-08-19T11:46:57.636Z,34.50
2018-08-19T11:49:25.705Z,34.50
2018-08-19T11:51:55.732Z,34.70
2018-08-19T11:54:24.551Z,34.60
2018-08-19T11:56:59.146Z,34.20
2018-08-19T11:59:32.525Z,34.30
2018-08-19T12:02:00.701Z,34.60
2018-08-19T12:04:28.758Z,34.90
2018-08-19T12:06:56.868Z,34.90
2018-08-19T12:09:24.937Z,34.90
2018-08-19T12:11:53.008Z,35.00
2018-08-19T12:14:21.055Z,34.60
2018-08-19T12:16:56.256Z,34.40
2018-08-19T12:19:27.701Z,34.30
2018-08-19T12:22:00.858Z,33.90
2018-08-19T12:24:37.813Z,34.00
2018-08-19T12:27:07.627Z,34.50
2018-08-19T12:29:36.848Z,35.00
2018-08-19T12:32:16.500Z,35.50
2018-08-19T12:34:46.432Z,36.00
2018-08-19T12:37:15.464Z,36.40
2018-08-19T12:39:43.629Z,36.70
2018-08-19T12:42:11.696Z,36.20
2018-08-19T12:44:40.210Z,35.60
2018-08-19T12:47:11.125Z,35.90
2018-08-19T12:49:41.501Z,36.30
2018-08-19T12:52:11.013Z,36.20
2018-08-19T12:54:39.196Z,36.30
2018-08-19T12:57:07.275Z,36.50
2018-08-19T12:59:35.340Z,36.60
2018-08-19T13:02:03.387Z,36.20
2018-08-19T13:04:31.441Z,36.00
2018-08-19T13:07:02.356Z,36.00
2018-08-19T13:09:31.264Z,36.10
2018-08-19T13:12:03.674Z,36.50
2018-08-19T13:14:31.981Z,36.70
2018-08-19T13:17:00.045Z,36.70
2018-08-19T13:19:28.649Z,36.50
2018-08-19T13:22:03.488Z,35.90
2018-08-19T13:24:39.770Z,35.60
2018-08-19T13:27:08.949Z,35.10
2018-08-19T13:29:37.707Z,34.70
2018-08-19T13:32:05.810Z,34.60
2018-08-19T13:34:33.848Z,34.40
2018-08-19T13:37:01.909Z,34.40
2018-08-19T13:39:29.968Z,34.60
2018-08-19T13:41:58.029Z,34.60
2018-08-19T13:47:00.513Z,34.70
2018-08-19T13:49:29.437Z,34.80
2018-08-19T13:52:00.637Z,34.70
2018-08-19T13:54:28.758Z,34.50
2018-08-19T13:56:56.860Z,34.50
2018-08-19T13:59:24.929Z,34.80
2018-08-19T14:01:52.981Z,34.90
2018-08-19T14:04:21.049Z,34.80
2018-08-19T14:06:49.100Z,34.60
2018-08-19T14:09:17.165Z,34.40
2018-08-19T14:11:45.251Z,34.10
2018-08-19T14:14:13.305Z,34.10
2018-08-19T14:16:41.383Z,34.00
2018-08-19T14:19:09.445Z,33.80
2018-08-19T14:21:37.493Z,33.90
2018-08-19T14:24:05.559Z,34.00
2018-08-19T14:26:33.776Z,34.00
2018-08-19T14:29:01.881Z,33.80
2018-08-19T14:31:30.476Z,33.80
2018-08-19T14:33:58.528Z,33.90
2018-08-19T14:36:26.599Z,34.10
2018-08-19T14:38:54.810Z,34.00
2018-08-19T14:41:22.861Z,33.80
2018-08-19T14:44:02.096Z,33.50
2018-08-19T14:46:31.210Z,33.50
2018-08-19T14:49:01.472Z,33.60
2018-08-19T14:51:32.540Z,33.70
2018-08-19T14:54:20.463Z,33.90
2018-08-19T14:56:48.672Z,34.10
2018-08-19T14:59:16.744Z,34.10
2018-08-19T15:01:45.467Z,33.90
2018-08-19T15:04:14.776Z,33.80
2018-08-19T15:06:43.888Z,33.80
2018-08-19T15:09:15.461Z,33.80
2018-08-19T15:11:43.520Z,33.70
2018-08-19T15:14:16.240Z,33.60
2018-08-19T15:16:45.952Z,33.70
2018-08-19T15:19:14.453Z,33.90
2018-08-19T15:21:43.306Z,34.00
2018-08-19T15:24:11.360Z,34.10
2018-08-19T15:26:39.420Z,34.20
2018-08-19T15:29:09.488Z,34.20
2018-08-19T15:31:37.546Z,34.20
2018-08-19T15:34:05.636Z,34.20
2018-08-19T15:36:33.794Z,34.10
2018-08-19T15:39:01.828Z,33.90
2018-08-19T15:41:29.920Z,33.90
2018-08-19T15:43:57.968Z,33.90
2018-08-19T15:46:26.033Z,33.90
2018-08-19T15:48:55.048Z,33.90
2018-08-19T15:51:23.106Z,33.90
2018-08-19T15:53:51.156Z,33.90
2018-08-19T15:56:19.204Z,33.80
2018-08-19T15:58:47.304Z,33.80
2018-08-19T16:01:28.220Z,33.70
2018-08-19T16:04:12.741Z,33.60
2018-08-19T16:06:41.573Z,33.60
2018-08-19T16:09:12.488Z,33.40
2018-08-19T16:11:40.590Z,33.40
2018-08-19T16:14:15.193Z,33.20
2018-08-19T16:16:43.256Z,33.20
2018-08-19T16:19:11.300Z,33.00
2018-08-19T16:21:39.366Z,33.00
2018-08-19T16:24:07.961Z,32.80
2018-08-19T16:26:36.167Z,32.70
2018-08-19T16:29:04.485Z,32.30
2018-08-19T16:31:32.540Z,32.20
2018-08-19T16:34:00.852Z,32.10
2018-08-19T16:36:28.840Z,32.00
2018-08-19T16:38:56.923Z,31.90
2018-08-19T16:41:25.483Z,31.70
2018-08-19T16:43:53.558Z,31.60
2018-08-19T16:46:21.637Z,31.50
2018-08-19T16:48:49.721Z,31.40
2018-08-19T16:51:17.776Z,31.30
2018-08-19T16:53:45.833Z,31.30
2018-08-19T16:56:13.907Z,31.30
2018-08-19T16:58:41.967Z,31.20
2018-08-19T17:01:10.064Z,31.10
2018-08-19T17:03:39.177Z,31.00
2018-08-19T17:06:12.581Z,31.10
2018-08-19T17:08:41.166Z,31.00
2018-08-19T17:11:10.713Z,30.90
2018-08-19T17:13:38.804Z,30.80
2018-08-19T17:16:06.975Z,30.80
2018-08-19T17:18:35.256Z,30.80
2018-08-19T17:21:03.552Z,30.60
2018-08-19T17:23:31.732Z,30.50
2018-08-19T17:26:03.193Z,30.30
2018-08-19T17:28:31.344Z,30.20
2018-08-19T17:30:59.446Z,30.10
2018-08-19T17:33:30.228Z,30.00
2018-08-19T17:35:58.428Z,29.80
2018-08-19T17:38:34.174Z,29.60
2018-08-19T17:41:02.868Z,29.50
2018-08-19T17:43:35.256Z,29.40
2018-08-19T17:46:07.819Z,29.30
2018-08-19T17:48:37.469Z,29.20
2018-08-19T17:51:38.716Z,29.10
2018-08-19T17:54:12.869Z,29.00
2018-08-19T17:56:41.241Z,28.80
2018-08-19T17:59:09.303Z,28.80
2018-08-19T18:01:40.615Z,28.70
2018-08-19T18:04:08.684Z,28.60
2018-08-19T18:06:36.757Z,28.50
2018-08-19T18:09:07.556Z,28.40
2018-08-19T18:11:35.708Z,28.30
2018-08-19T18:14:03.953Z,28.20
2018-08-19T18:16:32.044Z,28.20
2018-08-19T18:19:00.468Z,28.10
2018-08-19T18:21:29.264Z,28.00
2018-08-19T18:23:57.361Z,28.00
2018-08-19T18:26:25.412Z,27.90
2018-08-19T18:28:53.520Z,27.80
2018-08-19T18:31:22.732Z,27.70
2018-08-19T18:33:56.238Z,27.60
2018-08-19T18:36:25.460Z,27.50
2018-08-19T18:38:53.561Z,27.40
2018-08-19T18:41:30.140Z,27.20
2018-08-19T18:44:03.344Z,27.20
2018-08-19T18:46:31.927Z,27.10
2018-08-19T18:49:19.159Z,27.10
2018-08-19T18:51:50.584Z,27.00
2018-08-19T18:54:36.476Z,26.90
2018-08-19T18:57:07.491Z,26.80
2018-08-19T18:59:35.575Z,26.70
2018-08-19T19:02:04.381Z,26.60
2018-08-19T19:04:32.476Z,26.60
2018-08-19T19:07:00.560Z,26.50
2018-08-19T19:09:35.794Z,26.40
2018-08-19T19:12:04.509Z,26.40
2018-08-19T19:14:32.571Z,26.20
2018-08-19T19:17:00.763Z,26.10
2018-08-19T19:19:29.870Z,26.10
2018-08-19T19:22:00.221Z,25.90
2018-08-19T19:24:32.986Z,25.80
2018-08-19T19:27:01.073Z,25.70
2018-08-19T19:29:29.318Z,25.60
2018-08-19T19:31:58.491Z,25.50
2018-08-19T19:34:30.108Z,25.40
2018-08-19T19:36:58.193Z,25.40
2018-08-19T19:39:26.257Z,25.30
2018-08-19T19:42:02.611Z,25.30
2018-08-19T19:44:34.181Z,25.20
2018-08-19T19:47:02.349Z,25.10
2018-08-19T19:49:30.478Z,25.00
2018-08-19T19:52:00.785Z,24.90
2018-08-19T19:54:30.257Z,24.80
2018-08-19T19:56:58.805Z,24.70
2018-08-19T19:59:28.727Z,24.60
2018-08-19T20:01:56.845Z,24.60
2018-08-19T20:04:24.840Z,24.50
2018-08-19T20:06:52.888Z,24.40
2018-08-19T20:09:20.948Z,24.40
2018-08-19T20:11:49.069Z,24.40
2018-08-19T20:14:17.132Z,24.20
2018-08-19T20:16:45.193Z,24.30
2018-08-19T20:19:13.260Z,24.30
2018-08-19T20:21:41.341Z,24.20
2018-08-19T20:24:09.396Z,24.20
2018-08-19T20:26:37.466Z,24.10
2018-08-19T20:29:05.524Z,24.00
2018-08-19T20:31:33.580Z,24.00
2018-08-19T20:34:01.804Z,23.90
2018-08-19T20:36:29.800Z,23.90
2018-08-19T20:38:57.864Z,23.80
2018-08-19T20:41:25.957Z,23.70
2018-08-19T20:43:53.997Z,23.70
2018-08-19T20:46:22.046Z,23.60
2018-08-19T20:48:50.108Z,23.60
2018-08-19T20:51:18.165Z,23.60
2018-08-19T20:53:46.232Z,23.60
2018-08-19T20:56:14.361Z,23.50
2018-08-19T20:58:42.401Z,23.50
2018-08-19T21:01:16.320Z,23.50
2018-08-19T21:03:44.569Z,23.40
2018-08-19T21:06:12.617Z,23.40
2018-08-19T21:08:40.689Z,23.40
2018-08-19T21:11:08.748Z,23.30
2018-08-19T21:13:36.814Z,23.20
2018-08-19T21:16:04.884Z,23.20
2018-08-19T21:18:39.582Z,23.10
2018-08-19T21:21:07.716Z,23.00
2018-08-19T21:23:35.764Z,22.90
2018-08-19T21:26:03.821Z,22.80
2018-08-19T21:28:31.893Z,22.80
2018-08-19T21:30:59.965Z,22.70
2018-08-19T21:33:28.016Z,22.60
2018-08-19T21:35:56.728Z,22.50
2018-08-19T21:38:24.788Z,22.40
2018-08-19T21:40:53.660Z,22.30
2018-08-19T21:43:25.844Z,22.20
2018-08-19T21:45:53.892Z,22.10
2018-08-19T21:48:21.958Z,22.00
2018-08-19T21:50:50.003Z,22.00
2018-08-19T21:53:19.055Z,21.90
2018-08-19T21:55:48.382Z,21.80
2018-08-19T21:58:16.437Z,21.80
2018-08-19T22:00:50.225Z,21.70
2018-08-19T22:03:23.817Z,21.70
2018-08-19T22:05:52.908Z,21.60
2018-08-19T22:08:22.724Z,21.50
2018-08-19T22:10:50.820Z,21.50
2018-08-19T22:13:18.872Z,21.40
2018-08-19T22:15:47.497Z,21.40
2018-08-19T22:18:17.931Z,21.30
2018-08-19T22:21:00.863Z,21.30
2018-08-19T22:23:35.128Z,21.30
2018-08-19T22:26:03.289Z,21.20
2018-08-19T22:28:31.567Z,21.20
2018-08-19T22:31:09.785Z,21.20
2018-08-19T22:33:38.024Z,21.10
2018-08-19T22:36:06.097Z,21.10
2018-08-19T22:38:34.153Z,21.00
2018-08-19T22:41:02.213Z,21.00
2018-08-19T22:43:30.253Z,20.90
2018-08-19T22:46:05.065Z,20.90
2018-08-19T22:48:39.944Z,20.80
2018-08-19T22:51:08.443Z,20.80
2018-08-19T22:53:36.577Z,20.70
2018-08-19T22:56:04.996Z,20.70
2018-08-19T22:58:33.417Z,20.60
2018-08-19T23:01:01.489Z,20.60
2018-08-19T23:03:29.553Z,20.50
2018-08-19T23:05:57.608Z,20.50
2018-08-19T23:08:33.693Z,20.40
2018-08-19T23:11:03.016Z,20.40
2018-08-19T23:13:42.625Z,20.30
2018-08-19T23:16:11.584Z,20.30
2018-08-19T23:18:40.470Z,20.20
2018-08-19T23:21:08.765Z,20.10
2018-08-19T23:23:36.818Z,20.10
2018-08-19T23:26:05.160Z,20.00
2018-08-19T23:28:33.209Z,20.00
2018-08-19T23:31:01.274Z,20.00
2018-08-19T23:33:29.329Z,19.90
2018-08-19T23:35:57.388Z,19.90
2018-08-19T23:38:25.437Z,19.90
2018-08-19T23:40:53.496Z,19.80
2018-08-19T23:43:21.626Z,19.80
2018-08-19T23:45:49.673Z,19.80
2018-08-19T23:48:17.732Z,19.70
2018-08-19T23:50:46.700Z,19.70
2018-08-19T23:53:14.724Z,19.70
2018-08-19T23:55:42.789Z,19.60
2018-08-19T23:58:10.853Z,19.50
